This is the latest recevied weather packets stored in our database for station/object ENRA. If no packets are shown the sender has not sent any weather packets the latest 10 day(s).
| Time | Temp. | Humidity | Pressure | Rain* | Wind** | Luminosity | Snow |
|---|---|---|---|---|---|---|---|
| 1777825989 | 5° C | 52% | 1005 hPa | - | - | - | - |
| 1777824187 | 5° C | 52% | 1005 hPa | - | - | - | - |
| 1777822389 | 5° C | 52% | 1005 hPa | - | - | - | - |
| 1777820588 | 5.56° C | 52% | 1006 hPa | - | - | - | - |
| 1777818787 | 5.56° C | 52% | 1006 hPa | - | - | - | - |
| 1777816987 | 6.67° C | 48% | 1006 hPa | - | - | - | - |
| 1777813387 | 6.67° C | 42% | 1007 hPa | - | - | - | - |
| 1777811590 | 6.67° C | 42% | 1007 hPa | - | - | - | - |
| 1777809787 | 5° C | 52% | 1007 hPa | - | - | - | - |
| 1777807987 | 3.89° C | 60% | 1007 hPa | - | - | - | - |
| 1777806187 | 5.56° C | 56% | 1008 hPa | - | - | - | - |
| 1777804387 | 5° C | 65% | 1008 hPa | - | - | - | - |
| 1777802588 | 3.89° C | 60% | 1008 hPa | - | - | - | - |
| 1777800787 | 3.89° C | 64% | 1008 hPa | - | - | - | - |
| 1777798988 | 2.78° C | 69% | 1008 hPa | - | - | - | - |
| 1777797187 | 2.78° C | 74% | 1008 hPa | - | - | - | - |
| 1777795388 | 1.67° C | 74% | 1008 hPa | - | - | - | - |
| 1777793587 | 0.56° C | 86% | 1008 hPa | - | - | - | - |
| 1777791788 | 0.56° C | 86% | 1008 hPa | - | - | - | - |
| 1777789987 | 0.56° C | 80% | 1008 hPa | - | - | - | - |
| 1777788187 | 0.56° C | 80% | 1008 hPa | - | - | - | - |
| 1777786387 | 0.56° C | 80% | 1008 hPa | - | - | - | - |
| 1777784587 | 0° C | 86% | 1008 hPa | - | - | - | - |
| 1777782790 | 0° C | 86% | 1008 hPa | - | - | - | - |
| 1777780986 | 0° C | 86% | 1008 hPa | - | - | - | - |
* Rain since midnight (hover to see other rain measurements)
** Current wind speed in m/s (hover to see current wind gust speed)